createdAt,value
2018-06-03T00:00:16.906Z,5.20
2018-06-03T00:02:45.048Z,4.70
2018-06-03T00:05:13.196Z,5.00
2018-06-03T00:07:44.096Z,5.47
2018-06-03T00:10:12.240Z,5.10
2018-06-03T00:12:40.391Z,5.23
2018-06-03T00:15:09.625Z,5.60
2018-06-03T00:17:37.795Z,5.73
2018-06-03T00:20:05.960Z,5.33
2018-06-03T00:22:34.104Z,5.57
2018-06-03T00:25:02.295Z,5.07
2018-06-03T00:27:30.473Z,5.67
2018-06-03T00:29:58.668Z,5.07
2018-06-03T00:32:26.830Z,5.73
2018-06-03T00:34:55.173Z,5.10
2018-06-03T00:37:23.364Z,5.17
2018-06-03T00:40:00.909Z,5.47
2018-06-03T00:42:29.049Z,6.30
2018-06-03T00:44:57.247Z,5.73
2018-06-03T00:47:25.427Z,6.13
2018-06-03T00:49:53.589Z,6.57
2018-06-03T00:52:21.754Z,6.03
2018-06-03T00:54:49.921Z,6.17
2018-06-03T00:57:21.911Z,6.47
2018-06-03T00:59:50.059Z,5.80
2018-06-03T01:02:18.228Z,6.53
2018-06-03T01:04:46.428Z,5.90
2018-06-03T01:07:44.964Z,6.20
2018-06-03T01:10:13.129Z,6.90
2018-06-03T01:12:41.303Z,6.63
2018-06-03T01:15:09.441Z,5.70
2018-06-03T01:17:37.599Z,7.35
2018-06-03T01:20:05.766Z,6.50
2018-06-03T01:22:33.921Z,5.80
2018-06-03T01:25:02.122Z,5.93
2018-06-03T01:27:30.306Z,6.43
2018-06-03T01:32:34.147Z,6.13
2018-06-03T01:35:02.319Z,5.57
2018-06-03T01:37:34.257Z,5.73
2018-06-03T01:40:02.431Z,6.40
2018-06-03T01:42:37.247Z,5.60
2018-06-03T01:45:05.408Z,6.10
2018-06-03T01:47:35.391Z,6.67
2018-06-03T01:50:03.572Z,6.37
2018-06-03T01:52:31.723Z,6.43
2018-06-03T01:55:00.041Z,6.18
2018-06-03T01:57:29.963Z,6.07
2018-06-03T01:59:58.145Z,6.70
2018-06-03T02:02:26.289Z,5.90
2018-06-03T02:04:54.476Z,5.67
2018-06-03T02:07:22.615Z,6.30
2018-06-03T02:09:50.802Z,6.40
2018-06-03T02:12:18.976Z,6.70
2018-06-03T02:14:49.812Z,6.07
2018-06-03T02:17:17.959Z,6.30
2018-06-03T02:19:46.144Z,6.10
2018-06-03T02:22:18.069Z,6.03
2018-06-03T02:24:46.286Z,6.03
2018-06-03T02:27:14.476Z,5.63
2018-06-03T02:29:42.624Z,6.10
2018-06-03T02:32:13.734Z,6.22
2018-06-03T02:34:41.894Z,6.40
2018-06-03T02:37:10.046Z,6.57
2018-06-03T02:39:38.552Z,6.20
2018-06-03T02:42:06.706Z,7.20
2018-06-03T02:44:34.878Z,6.93
2018-06-03T02:47:03.027Z,6.80
2018-06-03T02:49:31.162Z,6.50
2018-06-03T02:51:59.841Z,6.83
2018-06-03T02:54:29.128Z,6.10
2018-06-03T02:56:57.284Z,6.33
2018-06-03T02:59:25.506Z,8.07
2018-06-03T03:01:53.659Z,7.27
2018-06-03T03:04:21.812Z,6.50
2018-06-03T03:06:49.981Z,6.53
2018-06-03T03:09:18.160Z,6.20
2018-06-03T03:11:46.737Z,6.67
2018-06-03T03:14:14.914Z,6.20
2018-06-03T03:16:43.067Z,5.93
2018-06-03T03:19:11.270Z,5.53
2018-06-03T03:21:39.462Z,5.80
2018-06-03T03:24:09.627Z,6.57
2018-06-03T03:26:37.797Z,7.15
2018-06-03T03:29:05.949Z,6.90
2018-06-03T03:31:34.130Z,6.83
2018-06-03T03:34:02.272Z,7.00
2018-06-03T03:36:30.929Z,7.30
2018-06-03T03:38:59.092Z,6.20
2018-06-03T03:41:36.858Z,6.77
2018-06-03T03:44:05.003Z,7.30
2018-06-03T03:46:33.186Z,6.40
2018-06-03T03:49:01.350Z,6.40
2018-06-03T03:51:29.502Z,6.40
2018-06-03T03:53:57.660Z,6.80
2018-06-03T03:56:26.604Z,6.23
2018-06-03T03:58:54.799Z,5.90
2018-06-03T04:01:29.576Z,7.07
2018-06-03T04:03:57.772Z,7.07
2018-06-03T04:06:25.918Z,7.07
2018-06-03T04:08:54.072Z,6.90
2018-06-03T04:11:22.226Z,7.60
2018-06-03T04:13:50.468Z,7.40
2018-06-03T04:16:18.651Z,7.23
2018-06-03T04:18:46.830Z,7.77
2018-06-03T04:21:15.039Z,7.30
2018-06-03T04:23:43.184Z,6.50
2018-06-03T04:26:11.359Z,7.33
2018-06-03T04:28:39.550Z,7.25
2018-06-03T04:31:07.733Z,7.80
2018-06-03T04:33:35.920Z,7.22
2018-06-03T04:36:04.068Z,7.73
2018-06-03T04:38:32.232Z,7.70
2018-06-03T04:41:00.376Z,7.37
2018-06-03T04:43:28.570Z,7.30
2018-06-03T04:45:56.719Z,7.20
2018-06-03T04:48:34.889Z,6.83
2018-06-03T04:51:09.372Z,7.13
2018-06-03T04:53:37.542Z,7.13
2018-06-03T04:56:05.715Z,7.27
2018-06-03T04:58:33.916Z,7.28
2018-06-03T05:01:02.191Z,7.40
2018-06-03T05:03:30.339Z,7.07
2018-06-03T05:05:58.505Z,7.33
2018-06-03T05:08:26.650Z,7.10
2018-06-03T05:10:54.826Z,7.60
2018-06-03T05:13:23.084Z,7.93
2018-06-03T05:15:51.242Z,7.50
2018-06-03T05:18:19.392Z,7.63
2018-06-03T05:20:47.538Z,7.23
2018-06-03T05:23:16.441Z,7.40
2018-06-03T05:25:44.599Z,7.67
2018-06-03T05:28:12.772Z,7.33
2018-06-03T05:30:40.911Z,8.67
2018-06-03T05:33:09.579Z,7.27
2018-06-03T05:35:40.206Z,7.90
2018-06-03T05:38:08.373Z,7.70
2018-06-03T05:40:36.542Z,7.75
2018-06-03T05:43:04.696Z,8.10
2018-06-03T05:45:32.887Z,7.80
2018-06-03T05:48:01.051Z,8.40
2018-06-03T05:50:29.214Z,7.60
2018-06-03T05:52:59.062Z,7.10
2018-06-03T05:55:27.302Z,8.47
2018-06-03T05:57:56.851Z,7.53
2018-06-03T06:00:28.385Z,7.87
2018-06-03T06:02:56.575Z,8.00
2018-06-03T06:05:24.757Z,9.40
2018-06-03T06:07:59.768Z,7.97
2018-06-03T06:10:28.025Z,7.97
2018-06-03T06:12:56.176Z,7.43
2018-06-03T06:15:24.340Z,7.70
2018-06-03T06:17:52.571Z,8.40
2018-06-03T06:20:21.160Z,8.23
2018-06-03T06:22:49.366Z,7.95
2018-06-03T06:25:24.933Z,7.40
2018-06-03T06:27:53.087Z,7.53
2018-06-03T06:30:21.254Z,8.57
2018-06-03T06:32:50.293Z,9.03
2018-06-03T06:35:18.496Z,8.73
2018-06-03T06:37:46.745Z,8.07
2018-06-03T06:40:14.933Z,8.20
2018-06-03T06:42:43.089Z,7.90
2018-06-03T06:48:04.940Z,7.10
2018-06-03T06:50:33.245Z,7.82
2018-06-03T06:53:01.407Z,7.60
2018-06-03T06:55:29.554Z,12.60
2018-06-03T06:57:57.745Z,7.00
2018-06-03T07:00:25.899Z,7.17
2018-06-03T07:02:54.077Z,7.73
2018-06-03T07:05:29.057Z,7.30
2018-06-03T07:07:57.204Z,6.97
2018-06-03T07:10:28.436Z,7.30
2018-06-03T07:12:56.603Z,6.83
2018-06-03T07:15:28.186Z,6.43
2018-06-03T07:17:56.324Z,6.20
2018-06-03T07:20:24.466Z,6.10
2018-06-03T07:22:52.695Z,6.57
2018-06-03T07:25:27.543Z,6.23
2018-06-03T07:27:55.730Z,6.73
2018-06-03T07:30:23.900Z,6.83
2018-06-03T07:32:52.053Z,7.33
2018-06-03T07:35:20.209Z,6.43
2018-06-03T07:37:48.363Z,6.37
2018-06-03T07:40:16.553Z,5.63
2018-06-03T07:42:44.709Z,5.60
2018-06-03T07:45:12.876Z,5.20
2018-06-03T07:47:41.029Z,5.60
2018-06-03T07:50:12.977Z,5.30
2018-06-03T07:52:41.143Z,5.97
2018-06-03T07:55:09.308Z,5.20
2018-06-03T07:57:37.493Z,5.57
2018-06-03T08:00:05.673Z,5.00
2018-06-03T08:02:34.071Z,5.00
2018-06-03T08:05:02.261Z,5.00
2018-06-03T08:07:30.474Z,5.10
2018-06-03T08:09:58.636Z,5.83
2018-06-03T08:12:26.803Z,4.57
2018-06-03T08:14:54.987Z,5.03
2018-06-03T08:17:23.130Z,5.50
2018-06-03T08:19:51.276Z,4.97
2018-06-03T08:22:19.502Z,5.50
2018-06-03T08:24:48.912Z,4.67
2018-06-03T08:27:17.064Z,4.30
2018-06-03T08:29:45.693Z,3.33
2018-06-03T08:32:15.309Z,4.10
2018-06-03T08:37:26.263Z,4.70
2018-06-03T08:39:54.435Z,4.03
2018-06-03T08:42:22.623Z,3.80
2018-06-03T08:44:50.871Z,3.70
2018-06-03T08:47:19.049Z,3.45
2018-06-03T08:49:47.248Z,4.50
2018-06-03T08:52:15.432Z,3.87
2018-06-03T08:54:43.614Z,3.40
2018-06-03T08:57:11.768Z,3.20
2018-06-03T08:59:46.215Z,3.30
2018-06-03T09:02:14.946Z,3.73
2018-06-03T09:04:43.179Z,3.73
2018-06-03T09:07:11.338Z,3.60
2018-06-03T09:09:39.487Z,3.13
2018-06-03T09:12:07.660Z,3.87
2018-06-03T09:14:35.836Z,3.23
2018-06-03T09:17:04.889Z,3.80
2018-06-03T09:19:33.433Z,3.63
2018-06-03T09:22:01.594Z,3.50
2018-06-03T09:24:29.767Z,3.57
2018-06-03T09:26:57.928Z,3.33
2018-06-03T09:29:26.092Z,3.50
2018-06-03T09:31:54.220Z,3.60
2018-06-03T09:34:22.400Z,3.95
2018-06-03T09:36:50.568Z,4.40
2018-06-03T09:39:18.759Z,3.35
2018-06-03T09:41:46.967Z,3.50
2018-06-03T09:44:15.971Z,3.40
2018-06-03T09:46:44.129Z,3.93
2018-06-03T09:49:12.285Z,4.00
2018-06-03T09:51:40.444Z,3.37
2018-06-03T09:54:16.347Z,3.20
2018-06-03T09:56:44.546Z,3.27
2018-06-03T09:59:12.681Z,3.33
2018-06-03T10:01:40.888Z,3.53
2018-06-03T10:04:09.056Z,4.50
2018-06-03T10:06:37.229Z,3.03
2018-06-03T10:09:05.423Z,3.27
2018-06-03T10:11:33.615Z,4.20
2018-06-03T10:14:03.410Z,3.40
2018-06-03T10:16:31.560Z,3.03
2018-06-03T10:18:59.736Z,2.53
2018-06-03T10:21:27.895Z,3.00
2018-06-03T10:23:56.050Z,2.50
2018-06-03T10:26:24.207Z,3.07
2018-06-03T10:28:52.370Z,2.95
2018-06-03T10:31:20.537Z,3.20
2018-06-03T10:33:48.683Z,2.92
2018-06-03T10:36:16.872Z,2.62
2018-06-03T10:38:45.025Z,2.67
2018-06-03T10:41:13.206Z,2.70
2018-06-03T10:43:41.362Z,3.05
2018-06-03T10:46:09.549Z,2.87
2018-06-03T10:48:37.731Z,2.70
2018-06-03T10:51:05.947Z,2.87
2018-06-03T10:53:34.129Z,2.70
2018-06-03T10:56:02.300Z,2.80
2018-06-03T10:58:30.456Z,3.20
2018-06-03T11:00:58.596Z,2.40
2018-06-03T11:03:26.788Z,2.10
2018-06-03T11:05:54.980Z,2.67
2018-06-03T11:08:23.195Z,2.80
2018-06-03T11:10:51.385Z,2.30
2018-06-03T11:13:19.595Z,2.40
2018-06-03T11:15:47.770Z,2.20
2018-06-03T11:18:18.504Z,2.53
2018-06-03T11:20:46.659Z,2.70
2018-06-03T11:23:14.839Z,2.57
2018-06-03T11:25:43.023Z,2.97
2018-06-03T11:28:11.176Z,2.40
2018-06-03T11:30:39.351Z,2.40
2018-06-03T11:33:07.584Z,2.40
2018-06-03T11:35:36.320Z,2.53
2018-06-03T11:38:04.553Z,2.70
2018-06-03T11:40:32.729Z,2.83
2018-06-03T11:43:00.887Z,3.70
2018-06-03T11:45:29.076Z,2.70
2018-06-03T11:47:57.224Z,2.97
2018-06-03T11:50:25.407Z,2.53
2018-06-03T11:52:53.576Z,2.50
2018-06-03T11:55:23.450Z,2.60
2018-06-03T11:57:52.429Z,2.30
2018-06-03T12:00:20.590Z,2.67
2018-06-03T12:02:51.780Z,2.50
2018-06-03T12:05:19.940Z,2.37
2018-06-03T12:07:48.091Z,2.35
2018-06-03T12:10:19.615Z,2.30
2018-06-03T12:12:47.763Z,2.47
2018-06-03T12:15:15.920Z,1.87
2018-06-03T12:17:44.150Z,2.05
2018-06-03T12:20:15.692Z,2.07
2018-06-03T12:22:43.858Z,2.17
2018-06-03T12:25:18.381Z,2.00
2018-06-03T12:27:46.567Z,2.20
2018-06-03T12:30:22.852Z,2.20
2018-06-03T12:32:51.029Z,2.72
2018-06-03T12:35:19.209Z,3.00
2018-06-03T12:37:47.356Z,2.70
2018-06-03T12:40:15.530Z,3.00
2018-06-03T12:42:43.705Z,2.70
2018-06-03T12:45:12.030Z,3.13
2018-06-03T12:47:40.212Z,2.77
2018-06-03T12:50:08.388Z,2.90
2018-06-03T12:52:37.196Z,2.57
2018-06-03T12:55:10.059Z,2.33
2018-06-03T12:57:38.226Z,2.53
2018-06-03T13:00:07.271Z,2.33
2018-06-03T13:02:35.461Z,2.30
2018-06-03T13:05:03.628Z,2.00
2018-06-03T13:07:31.810Z,2.30
2018-06-03T13:09:59.964Z,2.50
2018-06-03T13:12:28.177Z,2.40
2018-06-03T13:14:56.347Z,2.33
2018-06-03T13:17:24.532Z,2.50
2018-06-03T13:19:52.707Z,2.33
2018-06-03T13:22:20.899Z,2.20
2018-06-03T13:24:49.056Z,3.67
2018-06-03T13:27:17.214Z,2.10
2018-06-03T13:29:46.939Z,2.30
2018-06-03T13:32:15.108Z,2.20
2018-06-03T13:34:44.190Z,2.10
2018-06-03T13:37:12.373Z,2.30
2018-06-03T13:42:31.951Z,2.30
2018-06-03T13:45:00.415Z,2.30
2018-06-03T13:47:28.607Z,1.93
2018-06-03T13:49:56.765Z,2.20
2018-06-03T13:52:31.013Z,2.17
2018-06-03T13:54:59.724Z,2.35
2018-06-03T13:57:27.920Z,2.40
2018-06-03T13:59:56.072Z,2.53
2018-06-03T14:02:24.256Z,2.50
2018-06-03T14:04:52.451Z,2.10
2018-06-03T14:07:58.143Z,2.10
2018-06-03T14:10:27.524Z,2.60
2018-06-03T14:12:56.814Z,2.30
2018-06-03T14:15:26.127Z,2.30
2018-06-03T14:17:55.336Z,2.20
2018-06-03T14:20:24.933Z,2.40
2018-06-03T14:22:54.292Z,2.27
2018-06-03T14:25:23.628Z,2.40
2018-06-03T14:27:52.894Z,2.10
2018-06-03T14:30:22.327Z,2.20
2018-06-03T14:32:51.799Z,2.10
2018-06-03T14:35:21.516Z,2.20
2018-06-03T14:37:52.069Z,2.30
2018-06-03T14:40:22.223Z,2.10
2018-06-03T14:42:51.537Z,2.17
2018-06-03T14:45:20.822Z,2.10
2018-06-03T14:47:50.026Z,2.10
2018-06-03T14:50:19.259Z,1.95
2018-06-03T14:52:48.566Z,2.20
2018-06-03T14:55:17.916Z,2.30
2018-06-03T14:57:47.346Z,2.55
2018-06-03T15:00:16.613Z,2.40
2018-06-03T15:02:46.015Z,2.30
2018-06-03T15:05:15.394Z,2.03
2018-06-03T15:07:44.664Z,2.40
2018-06-03T15:10:20.215Z,2.30
2018-06-03T15:12:49.571Z,2.90
2018-06-03T15:15:18.790Z,1.90
2018-06-03T15:17:48.053Z,2.60
2018-06-03T15:20:18.396Z,2.06
2018-06-03T15:22:54.876Z,2.30
2018-06-03T15:25:24.384Z,3.65
2018-06-03T15:27:53.746Z,2.10
2018-06-03T15:30:22.987Z,1.97
2018-06-03T15:32:52.225Z,2.00
2018-06-03T15:35:21.540Z,3.85
2018-06-03T15:37:50.886Z,2.33
2018-06-03T15:40:20.214Z,2.00
2018-06-03T15:42:49.653Z,2.10
2018-06-03T15:45:19.000Z,2.10
2018-06-03T15:47:48.362Z,2.00
2018-06-03T15:50:27.159Z,2.10
2018-06-03T15:53:05.070Z,2.00
2018-06-03T15:55:34.345Z,1.77
2018-06-03T15:58:03.557Z,2.02
2018-06-03T16:00:32.893Z,2.50
2018-06-03T16:03:02.359Z,2.40
2018-06-03T16:05:32.820Z,2.27
2018-06-03T16:08:02.180Z,2.02
2018-06-03T16:10:31.503Z,2.17
2018-06-03T16:13:00.808Z,2.37
2018-06-03T16:15:29.995Z,2.20
2018-06-03T16:17:59.201Z,2.10
2018-06-03T16:20:28.461Z,3.27
2018-06-03T16:23:01.542Z,3.30
2018-06-03T16:25:30.848Z,2.30
2018-06-03T16:28:02.046Z,2.67
2018-06-03T16:30:31.406Z,2.37
2018-06-03T16:33:00.698Z,2.23
2018-06-03T16:35:29.936Z,3.60
2018-06-03T16:37:59.186Z,3.63
2018-06-03T16:40:28.595Z,2.40
2018-06-03T16:42:57.993Z,3.43
2018-06-03T16:45:27.330Z,2.50
2018-06-03T16:47:57.208Z,2.02
2018-06-03T16:50:27.263Z,2.40
2018-06-03T16:52:56.667Z,2.90
2018-06-03T16:55:25.917Z,2.90
2018-06-03T16:57:55.425Z,2.30
2018-06-03T17:00:25.110Z,2.60
2018-06-03T17:02:54.609Z,2.03
2018-06-03T17:05:33.087Z,2.23
2018-06-03T17:08:04.709Z,2.63
2018-06-03T17:10:34.040Z,2.23
2018-06-03T17:13:03.367Z,2.02
2018-06-03T17:15:32.707Z,2.15
2018-06-03T17:18:02.504Z,2.23
2018-06-03T17:20:34.199Z,2.30
2018-06-03T17:23:03.695Z,2.50
2018-06-03T17:25:33.577Z,1.93
2018-06-03T17:28:03.046Z,2.52
2018-06-03T17:30:33.134Z,2.20
2018-06-03T17:33:02.574Z,5.60
2018-06-03T17:35:32.138Z,4.20
2018-06-03T17:38:01.374Z,2.57
2018-06-03T17:40:30.763Z,6.00
2018-06-03T17:43:00.129Z,2.30
2018-06-03T17:45:29.525Z,4.53
2018-06-03T17:47:59.138Z,3.60
2018-06-03T17:50:32.412Z,2.92
2018-06-03T17:53:02.473Z,2.40
2018-06-03T17:55:31.758Z,2.40
2018-06-03T17:58:01.432Z,3.07
2018-06-03T18:00:38.418Z,2.57
2018-06-03T18:03:08.006Z,2.47
2018-06-03T18:05:38.064Z,2.30
2018-06-03T18:08:09.545Z,2.58
2018-06-03T18:10:42.731Z,2.40
2018-06-03T18:13:12.462Z,2.70
2018-06-03T18:15:41.893Z,2.40
2018-06-03T18:18:11.328Z,2.95
2018-06-03T18:20:41.403Z,2.67
2018-06-03T18:23:10.954Z,2.90
2018-06-03T18:25:45.081Z,2.77
2018-06-03T18:28:28.931Z,2.97
2018-06-03T18:30:59.670Z,2.65
2018-06-03T18:33:29.715Z,2.77
2018-06-03T18:36:00.123Z,3.23
2018-06-03T18:38:29.886Z,4.53
2018-06-03T18:40:59.713Z,3.87
2018-06-03T18:43:29.903Z,3.65
2018-06-03T18:45:59.756Z,3.33
2018-06-03T18:48:29.929Z,3.20
2018-06-03T18:51:00.140Z,2.70
2018-06-03T18:53:29.968Z,2.97
2018-06-03T18:56:00.235Z,2.93
2018-06-03T18:58:30.134Z,3.00
2018-06-03T19:01:02.441Z,2.92
2018-06-03T19:03:31.675Z,2.90
2018-06-03T19:06:04.922Z,2.80
2018-06-03T19:08:34.236Z,2.57
2018-06-03T19:11:04.219Z,3.07
2018-06-03T19:13:33.614Z,2.63
2018-06-03T19:16:03.077Z,3.70
2018-06-03T19:18:32.881Z,3.50
2018-06-03T19:21:02.316Z,3.20
2018-06-03T19:23:31.666Z,2.83
2018-06-03T19:26:00.963Z,2.80
2018-06-03T19:28:30.445Z,2.87
2018-06-03T19:31:00.913Z,2.85
2018-06-03T19:33:30.681Z,3.13
2018-06-03T19:36:00.955Z,3.10
2018-06-03T19:38:30.700Z,3.00
2018-06-03T19:41:00.693Z,3.72
2018-06-03T19:43:32.487Z,3.27
2018-06-03T19:46:01.951Z,3.40
2018-06-03T19:48:31.130Z,3.27
2018-06-03T19:51:00.364Z,3.53
2018-06-03T19:53:30.621Z,3.60
2018-06-03T19:55:59.782Z,3.20
2018-06-03T19:58:29.294Z,3.40
2018-06-03T20:00:59.805Z,4.10
2018-06-03T20:03:28.958Z,4.43
2018-06-03T20:05:58.228Z,3.70
2018-06-03T20:08:30.774Z,4.00
2018-06-03T20:10:59.989Z,4.30
2018-06-03T20:13:29.676Z,6.50
2018-06-03T20:16:00.256Z,5.33
2018-06-03T20:18:29.540Z,4.77
2018-06-03T20:20:58.797Z,4.23
2018-06-03T20:23:27.960Z,3.20
2018-06-03T20:25:57.267Z,3.70
2018-06-03T20:28:26.461Z,3.70
2018-06-03T20:30:55.626Z,3.93
2018-06-03T20:33:24.766Z,3.47
2018-06-03T20:35:54.051Z,3.63
2018-06-03T20:38:23.351Z,3.50
2018-06-03T20:40:52.586Z,3.10
2018-06-03T20:43:21.720Z,3.23
2018-06-03T20:45:50.968Z,2.80
2018-06-03T20:48:20.261Z,3.10
2018-06-03T20:50:49.444Z,3.93
2018-06-03T20:53:18.679Z,3.17
2018-06-03T20:55:47.851Z,3.15
2018-06-03T20:58:17.062Z,3.20
2018-06-03T21:00:46.364Z,3.47
2018-06-03T21:03:15.515Z,3.73
2018-06-03T21:05:44.586Z,3.40
2018-06-03T21:08:13.868Z,3.50
2018-06-03T21:10:43.034Z,3.33
2018-06-03T21:13:12.170Z,3.40
2018-06-03T21:15:41.462Z,3.60
2018-06-03T21:18:10.667Z,3.70
2018-06-03T21:20:40.343Z,2.97
2018-06-03T21:23:09.544Z,3.50
2018-06-03T21:25:38.632Z,3.00
2018-06-03T21:28:07.713Z,3.77
2018-06-03T21:30:36.826Z,3.40
2018-06-03T21:33:06.602Z,2.80
2018-06-03T21:35:35.734Z,3.70
2018-06-03T21:38:04.858Z,3.70
2018-06-03T21:40:33.969Z,3.87
2018-06-03T21:43:03.096Z,3.30
2018-06-03T21:45:32.263Z,3.93
2018-06-03T21:48:01.741Z,3.60
2018-06-03T21:50:31.535Z,3.60
2018-06-03T21:53:00.641Z,4.13
2018-06-03T21:55:29.849Z,3.60
2018-06-03T21:58:02.495Z,4.00
2018-06-03T22:00:31.541Z,3.53
2018-06-03T22:03:00.647Z,4.08
2018-06-03T22:05:35.311Z,3.40
2018-06-03T22:08:04.399Z,3.20
2018-06-03T22:10:33.618Z,3.50
2018-06-03T22:13:02.713Z,3.80
2018-06-03T22:15:31.871Z,3.53
2018-06-03T22:18:00.970Z,3.23
2018-06-03T22:20:30.221Z,3.50
2018-06-03T22:22:59.455Z,3.60
2018-06-03T22:25:28.498Z,4.00
2018-06-03T22:28:03.361Z,3.70
2018-06-03T22:30:32.451Z,3.50
2018-06-03T22:33:01.579Z,3.97
2018-06-03T22:35:30.657Z,4.13
2018-06-03T22:38:00.429Z,4.10
2018-06-03T22:40:29.547Z,3.90
2018-06-03T22:42:58.697Z,3.87
2018-06-03T22:45:27.816Z,4.15
2018-06-03T22:47:59.235Z,4.27
2018-06-03T22:50:30.152Z,4.20
2018-06-03T22:52:59.355Z,3.85
2018-06-03T22:55:28.496Z,3.90
2018-06-03T22:57:57.533Z,3.93
2018-06-03T23:00:31.575Z,5.00
2018-06-03T23:03:05.900Z,4.70
2018-06-03T23:05:36.291Z,4.40
2018-06-03T23:08:10.427Z,3.90
2018-06-03T23:10:39.607Z,4.27
2018-06-03T23:13:08.749Z,3.90
2018-06-03T23:15:37.879Z,4.00
2018-06-03T23:18:07.050Z,3.93
2018-06-03T23:20:36.143Z,4.17
2018-06-03T23:23:05.347Z,4.90
2018-06-03T23:25:34.639Z,5.50
2018-06-03T23:28:03.878Z,4.37
2018-06-03T23:30:32.995Z,4.63
2018-06-03T23:33:02.136Z,4.87
2018-06-03T23:35:31.565Z,5.67
2018-06-03T23:38:00.743Z,4.80
2018-06-03T23:40:29.883Z,4.77
2018-06-03T23:42:58.999Z,5.67
2018-06-03T23:45:28.170Z,4.22
2018-06-03T23:47:57.347Z,5.15
2018-06-03T23:50:26.493Z,5.03
2018-06-03T23:52:59.273Z,5.33
2018-06-03T23:55:28.418Z,4.70
2018-06-03T23:58:09.096Z,4.90
